Time;durP1;ratioP1;P1;durP2;ratioP2;P2;SDS_P1;SDS_P2;PMS_P1;PMS_P2;Temp;Humidity;BMP_temperature;BMP_pressure;BME280_temperature;BME280_humidity;BME280_pressure;Samples;Min_cycle;Max_cycle;Signal;HPM_P1;HPM_P2
2021/12/17 00:00:46;;;;;;;18.88;4.57;;;;;;;20.86;42.68;101386.16;4175149;28;20033;-39
2021/12/17 00:05:11;;;;;;;19.73;4.50;;;;;;;20.94;42.60;101380.09;4175783;28;20090;-40
2021/12/17 00:07:14;;;;;;;11.57;4.18;;;;;;;20.97;42.90;101383.16;4176785;28;20095;-39
2021/12/17 00:09:16;;;;;;;14.50;4.35;;;;;;;21.00;42.52;101379.00;4178533;28;20040;-40
2021/12/17 00:11:19;;;;;;;23.50;4.72;;;;;;;21.00;42.67;101379.84;4177396;28;20038;-40
2021/12/17 00:13:20;;;;;;;28.08;4.95;;;;;;;20.96;42.95;101378.69;4177369;28;20052;-39
2021/12/17 00:15:25;;;;;;;21.23;4.18;;;;;;;21.00;43.01;101390.13;4176876;28;20114;-39
2021/12/17 00:17:33;;;;;;;24.77;4.50;;;;;;;21.00;43.32;101390.13;4172412;28;20044;-40
2021/12/17 00:40:33;;;;;;;17.17;4.30;;;;;;;21.09;43.23;101394.06;4179863;28;20126;-44
2021/12/17 00:49:25;;;;;;;16.30;4.00;;;;;;;21.06;43.48;101366.78;4168595;28;20143;-45
2021/12/17 00:53:47;;;;;;;11.00;3.72;;;;;;;21.15;43.55;101376.28;4175502;28;19924;-45
2021/12/17 00:55:49;;;;;;;10.90;3.53;;;;;;;21.13;43.62;101372.13;4174977;28;20037;-45
2021/12/17 00:57:51;;;;;;;8.18;4.00;;;;;;;21.05;43.36;101365.13;4169852;28;20099;-45
2021/12/17 00:59:54;;;;;;;6.57;3.85;;;;;;;21.08;43.57;101375.72;4172297;28;20566;-44
2021/12/17 01:01:58;;;;;;;10.43;3.92;;;;;;;21.05;43.65;101370.69;4177579;28;20041;-46
2021/12/17 01:03:59;;;;;;;5.35;3.42;;;;;;;21.05;43.81;101371.50;4175845;28;20041;-45
2021/12/17 01:06:02;;;;;;;15.35;3.50;;;;;;;21.05;43.65;101363.16;4177413;28;20037;-40
2021/12/17 01:08:04;;;;;;;8.13;3.55;;;;;;;21.06;43.89;101364.00;4170563;28;20045;-40
2021/12/17 01:10:15;;;;;;;19.77;3.83;;;;;;;21.06;43.76;101364.81;4176070;28;20102;-40
2021/12/17 01:12:18;;;;;;;9.55;3.20;;;;;;;21.08;44.18;101375.72;4176343;28;20071;-40
2021/12/17 01:14:20;;;;;;;17.20;3.58;;;;;;;21.03;44.11;101370.97;4176523;28;20040;-38
2021/12/17 01:16:22;;;;;;;12.20;4.22;;;;;;;21.03;44.15;101370.13;4177914;28;20118;-40
2021/12/17 01:18:35;;;;;;;15.52;3.92;;;;;;;21.01;44.93;101375.94;4175101;28;20550;-40
2021/12/17 01:22:55;;;;;;;12.02;3.83;;;;;;;20.95;45.10;101376.19;4170826;28;20098;-39
2021/12/17 01:25:02;;;;;;;12.43;3.67;;;;;;;20.92;45.04;101374.78;4166275;28;20156;-40
2021/12/17 01:36:37;;;;;;;18.15;3.75;;;;;;;20.93;44.39;101362.53;4175801;28;20504;-38
2021/12/17 01:43:36;;;;;;;9.50;3.43;;;;;;;20.86;44.54;101350.84;4176872;28;20110;-39
2021/12/17 01:45:39;;;;;;;17.40;2.80;;;;;;;20.90;44.80;101345.56;4169400;28;20030;-40
2021/12/17 01:47:40;;;;;;;13.68;3.67;;;;;;;20.86;44.77;101339.72;4170003;28;20094;-40
2021/12/17 02:00:53;;;;;;;10.77;3.10;;;;;;;20.75;43.47;101344.38;4170925;28;20095;-40
2021/12/17 02:02:58;;;;;;;17.80;3.53;;;;;;;20.71;44.07;101332.13;4171876;28;20075;-40
2021/12/17 02:05:00;;;;;;;17.13;3.40;;;;;;;20.69;44.04;101322.38;4166354;28;20163;-41
2021/12/17 02:07:02;;;;;;;11.98;3.08;;;;;;;20.69;43.94;101325.16;4172123;28;21301;-41
2021/12/17 02:12:11;;;;;;;24.90;3.65;;;;;;;20.69;44.28;101323.22;4166019;28;20087;-42
2021/12/17 02:21:36;;;;;;;18.35;2.90;;;;;;;20.63;43.93;101313.19;4176436;28;20088;-41
2021/12/17 02:28:47;;;;;;;5.60;2.38;;;;;;;20.65;43.72;101322.06;4168830;28;20107;-42
2021/12/17 02:31:05;;;;;;;6.13;2.42;;;;;;;20.56;43.79;101320.91;4163433;28;20132;-43
2021/12/17 02:33:07;;;;;;;9.75;2.97;;;;;;;20.55;43.78;101314.50;4163298;28;20542;-42
2021/12/17 02:35:24;;;;;;;11.38;2.53;;;;;;;20.55;43.69;101310.91;4165492;28;20049;-42
2021/12/17 02:37:31;;;;;;;6.75;2.60;;;;;;;20.50;43.87;101313.66;4181707;28;20199;-41
2021/12/17 02:46:33;;;;;;;5.13;2.72;;;;;;;20.43;44.00;101285.22;4167059;28;20197;-42
2021/12/17 02:48:36;;;;;;;5.15;2.53;;;;;;;20.42;44.08;101286.31;4165761;28;20049;-41
2021/12/17 02:50:50;;;;;;;6.85;2.55;;;;;;;20.44;44.21;101282.19;4172231;28;20451;-42
2021/12/17 02:52:54;;;;;;;6.50;2.42;;;;;;;20.45;44.02;101271.91;4176049;28;20180;-44
2021/12/17 02:54:59;;;;;;;8.68;2.85;;;;;;;20.43;44.28;101263.81;4179172;28;20099;-44
2021/12/17 02:57:01;;;;;;;6.22;2.67;;;;;;;20.42;44.09;101255.75;4172006;28;20100;-41
2021/12/17 02:59:03;;;;;;;4.15;2.38;;;;;;;20.45;44.14;101249.66;4165670;28;20109;-42
2021/12/17 03:01:08;;;;;;;7.55;2.88;;;;;;;20.46;44.30;101251.34;4174572;28;20045;-42
2021/12/17 03:03:10;;;;;;;9.02;2.67;;;;;;;20.49;44.01;101256.38;4183147;28;20021;-41
2021/12/17 03:05:12;;;;;;;3.72;2.60;;;;;;;20.49;44.21;101246.09;4167972;28;20052;-40
2021/12/17 03:07:14;;;;;;;4.20;2.30;;;;;;;20.48;44.15;101251.91;4166104;28;20083;-42
2021/12/17 03:09:21;;;;;;;3.58;2.58;;;;;;;20.45;44.25;101261.63;4166579;28;20103;-41
2021/12/17 03:11:22;;;;;;;3.95;2.35;;;;;;;20.45;44.13;101260.78;4166089;28;20080;-42
2021/12/17 03:13:25;;;;;;;6.88;2.20;;;;;;;20.47;43.93;101270.53;4169457;28;20045;-42
2021/12/17 03:24:48;;;;;;;115.35;66.13;;;;;;;20.48;44.04;101254.69;4182735;28;20037;-43
2021/12/17 03:26:50;;;;;;;79.75;46.10;;;;;;;20.45;43.97;101232.97;4182803;28;20475;-43
2021/12/17 03:28:54;;;;;;;52.63;30.38;;;;;;;20.44;43.92;101209.91;4175952;28;20437;-43
2021/12/17 03:30:56;;;;;;;43.53;24.02;;;;;;;20.46;44.18;101229.09;4167476;28;20037;-42
2021/12/17 03:32:58;;;;;;;38.88;21.25;;;;;;;20.45;44.18;101238.53;4178666;28;20166;-42
2021/12/17 03:35:00;;;;;;;39.45;22.95;;;;;;;20.46;44.37;101223.53;4166267;28;20041;-43
2021/12/17 03:37:02;;;;;;;28.00;16.45;;;;;;;20.46;43.93;101229.91;4165740;28;20025;-43
2021/12/17 03:39:03;;;;;;;19.88;11.52;;;;;;;20.43;43.85;101235.19;4164299;28;20042;-43
2021/12/17 03:41:15;;;;;;;22.90;13.40;;;;;;;20.44;44.06;101248.00;4165334;28;20389;-48
2021/12/17 03:43:23;;;;;;;20.70;9.77;;;;;;;20.44;44.03;101262.72;4165485;28;20095;-44
2021/12/17 03:45:27;;;;;;;11.63;7.35;;;;;;;20.42;43.99;101267.69;4164723;28;20034;-46
2021/12/17 03:47:28;;;;;;;12.57;6.85;;;;;;;20.39;43.78;101261.84;4164485;28;20043;-43
2021/12/17 03:49:32;;;;;;;14.20;7.57;;;;;;;20.40;44.22;101257.97;4166035;28;20413;-47
2021/12/17 03:51:46;;;;;;;14.52;7.07;;;;;;;20.37;43.92;101258.50;4181414;28;20084;-47
2021/12/17 03:53:50;;;;;;;11.95;5.40;;;;;;;20.35;43.80;101271.84;4179091;28;20045;-47
2021/12/17 03:55:52;;;;;;;11.68;6.20;;;;;;;20.34;44.19;101270.16;4165961;28;20053;-46
2021/12/17 03:57:53;;;;;;;6.93;3.80;;;;;;;20.33;43.99;101280.44;4165761;28;20064;-48
2021/12/17 03:59:55;;;;;;;13.15;4.60;;;;;;;20.34;43.90;101270.16;4168169;28;20048;-44
2021/12/17 04:01:57;;;;;;;7.80;4.13;;;;;;;20.35;44.10;101278.25;4182371;28;20094;-46
2021/12/17 04:03:58;;;;;;;4.97;3.13;;;;;;;20.32;43.85;101276.00;4182210;28;20093;-45
2021/12/17 04:06:00;;;;;;;6.47;3.25;;;;;;;20.27;44.10;101282.34;4181024;28;20044;-46
2021/12/17 04:08:02;;;;;;;7.55;3.63;;;;;;;20.25;44.28;101269.81;4166329;28;20091;-44
2021/12/17 04:10:04;;;;;;;7.75;3.25;;;;;;;20.22;44.28;101293.44;4178362;28;20036;-48
2021/12/17 04:12:11;;;;;;;9.30;3.70;;;;;;;20.21;44.69;101293.72;4181498;28;20048;-46
2021/12/17 04:14:13;;;;;;;9.35;3.17;;;;;;;20.19;44.47;101291.19;4158498;28;20366;-47
2021/12/17 04:16:14;;;;;;;4.70;2.90;;;;;;;20.19;44.36;101299.53;4170118;28;20045;-49
2021/12/17 04:18:15;;;;;;;5.22;2.92;;;;;;;20.19;44.40;101291.19;4165146;28;20084;-47
2021/12/17 04:20:19;;;;;;;6.32;3.03;;;;;;;20.17;44.40;101292.56;4166086;28;20083;-50
2021/12/17 04:22:21;;;;;;;10.40;3.30;;;;;;;20.14;44.78;101288.38;4164890;28;20037;-49
2021/12/17 04:24:22;;;;;;;9.32;2.78;;;;;;;20.13;44.81;101285.88;4168287;28;20091;-47
2021/12/17 04:26:25;;;;;;;4.95;2.70;;;;;;;20.12;44.96;101293.38;4174477;28;20050;-48
2021/12/17 04:28:30;;;;;;;3.67;2.55;;;;;;;20.13;44.73;101291.44;4179492;28;20067;-50
2021/12/17 04:30:32;;;;;;;6.70;2.70;;;;;;;20.08;44.77;101272.78;4181681;28;20037;-46
2021/12/17 04:32:33;;;;;;;8.23;2.63;;;;;;;20.14;44.58;101288.38;4181133;28;20091;-45
2021/12/17 04:34:35;;;;;;;4.15;3.03;;;;;;;20.13;45.11;101292.25;4175007;28;20080;-48
2021/12/17 04:36:37;;;;;;;4.20;2.58;;;;;;;20.09;44.79;101293.91;4163741;28;20071;-46
2021/12/17 04:38:41;;;;;;;4.60;2.45;;;;;;;20.06;44.77;101286.94;4162979;28;20083;-49
2021/12/17 04:40:44;;;;;;;6.00;2.40;;;;;;;20.05;44.79;101284.41;4164301;28;20290;-46
2021/12/17 04:44:56;;;;;;;8.55;2.47;;;;;;;19.95;45.07;101278.81;4182458;28;20342;-49
2021/12/17 04:58:33;;;;;;;3.60;1.95;;;;;;;19.96;44.99;101242.41;4178342;28;20431;-47
2021/12/17 05:00:34;;;;;;;5.88;2.40;;;;;;;20.04;45.10;101254.97;4180742;28;20091;-46
2021/12/17 05:02:41;;;;;;;9.95;2.72;;;;;;;20.02;45.26;101257.16;4180827;28;20151;-49
2021/12/17 05:04:45;;;;;;;4.18;2.20;;;;;;;20.01;44.95;101261.06;4180440;28;20041;-46
2021/12/17 05:06:47;;;;;;;3.80;2.03;;;;;;;20.04;44.80;101260.53;4169163;28;20045;-48
2021/12/17 05:08:55;;;;;;;5.43;2.30;;;;;;;20.05;45.15;101257.47;4164246;28;20746;-46
2021/12/17 05:20:18;;;;;;;3.63;2.40;;;;;;;20.05;45.13;101228.88;4181028;28;20154;-48
2021/12/17 05:22:21;;;;;;;3.17;2.30;;;;;;;20.03;44.74;101211.63;4180899;28;20393;-45
2021/12/17 05:24:22;;;;;;;5.03;2.20;;;;;;;20.10;45.19;101228.88;4180901;28;20033;-47
2021/12/17 05:26:24;;;;;;;5.13;2.30;;;;;;;20.12;45.07;101223.91;4180872;28;20365;-53
2021/12/17 05:28:25;;;;;;;3.97;2.38;;;;;;;20.10;44.80;101212.22;4180645;28;20029;-45
2021/12/17 05:30:28;;;;;;;2.70;1.90;;;;;;;20.12;45.07;101212.81;4180934;28;20037;-48
2021/12/17 05:32:30;;;;;;;4.07;2.30;;;;;;;20.12;45.04;101217.53;4179595;28;20086;-51
2021/12/17 05:34:31;;;;;;;4.93;2.47;;;;;;;20.11;44.73;101227.78;4181092;28;20095;-47
2021/12/17 05:36:33;;;;;;;4.50;2.25;;;;;;;19.86;45.00;101188.75;4179807;28;20099;-47
2021/12/17 05:38:34;;;;;;;4.95;2.22;;;;;;;20.02;44.71;101235.81;4180168;28;20476;-50
2021/12/17 05:40:36;;;;;;;4.13;2.10;;;;;;;20.00;45.04;101228.84;4180138;28;20075;-50
2021/12/17 05:42:39;;;;;;;3.72;2.17;;;;;;;19.97;45.36;101223.81;4180486;28;20102;-48
2021/12/17 05:44:45;;;;;;;4.47;2.30;;;;;;;19.93;45.16;101220.75;4180809;28;20163;-45
2021/12/17 05:46:49;;;;;;;6.55;2.85;;;;;;;19.93;45.17;101219.88;4175778;28;20115;-48
2021/12/17 05:48:51;;;;;;;3.95;2.17;;;;;;;19.91;45.30;101216.56;4166386;28;20076;-46
2021/12/17 05:50:58;;;;;;;3.70;2.40;;;;;;;19.88;45.53;101222.63;4163571;28;20083;-48
2021/12/17 05:53:00;;;;;;;4.93;2.40;;;;;;;19.90;45.23;101231.53;4177250;28;20442;-52
2021/12/17 05:55:01;;;;;;;5.05;2.40;;;;;;;19.83;45.47;101222.59;4166870;28;20107;-48
2021/12/17 05:57:03;;;;;;;5.57;2.60;;;;;;;19.87;45.54;101226.50;4162643;28;20045;-46
2021/12/17 05:59:06;;;;;;;4.45;2.35;;;;;;;19.86;45.53;101222.91;4164859;28;20025;-46
2021/12/17 06:01:07;;;;;;;6.22;2.22;;;;;;;19.77;45.62;101211.47;4164143;28;20100;-45
2021/12/17 06:03:09;;;;;;;2.63;2.08;;;;;;;19.75;45.64;101208.13;4169195;28;20102;-52
2021/12/17 06:05:10;;;;;;;4.18;2.30;;;;;;;19.82;45.88;101232.03;4177939;28;20029;-45
2021/12/17 06:07:12;;;;;;;5.10;2.35;;;;;;;19.78;45.70;101228.94;4180519;28;20041;-46
2021/12/17 06:09:16;;;;;;;4.43;2.10;;;;;;;19.79;45.83;101242.59;4181952;28;20041;-46
2021/12/17 06:11:17;;;;;;;5.68;2.33;;;;;;;19.73;45.85;101215.88;4184216;28;20086;-44
2021/12/17 06:13:18;;;;;;;5.65;2.40;;;;;;;19.79;45.75;101236.16;4182641;28;20094;-51
2021/12/17 06:15:21;;;;;;;3.92;2.30;;;;;;;19.76;45.86;101232.00;4167243;28;20107;-46
2021/12/17 06:17:23;;;;;;;4.10;2.15;;;;;;;19.77;45.71;101230.06;4167424;28;20081;-47
2021/12/17 06:19:25;;;;;;;4.07;2.53;;;;;;;19.75;45.84;101235.88;4182495;28;20508;-49
2021/12/17 06:21:27;;;;;;;4.38;2.25;;;;;;;19.75;46.08;101229.50;4183531;28;20542;-49
2021/12/17 06:23:28;;;;;;;3.10;1.95;;;;;;;19.74;46.26;101233.34;4181784;28;20125;-44
2021/12/17 06:25:32;;;;;;;3.63;2.30;;;;;;;19.77;46.21;101243.94;4184113;28;20330;-46
2021/12/17 06:27:35;;;;;;;3.58;2.33;;;;;;;19.85;45.70;101245.41;4181491;28;20037;-45
2021/12/17 06:29:37;;;;;;;3.50;2.13;;;;;;;19.91;45.93;101239.59;4183338;28;20040;-47
2021/12/17 06:31:38;;;;;;;4.15;1.98;;;;;;;19.95;45.90;101240.75;4183163;28;20487;-46
2021/12/17 06:33:40;;;;;;;3.67;2.30;;;;;;;19.94;45.54;101222.41;4183210;28;20041;-48
2021/12/17 06:35:41;;;;;;;6.22;2.33;;;;;;;20.00;45.74;101229.66;4183726;28;20033;-45
2021/12/17 06:37:43;;;;;;;3.85;2.38;;;;;;;20.02;45.50;101229.38;4181902;28;20037;-46
2021/12/17 06:39:55;;;;;;;2.80;2.05;;;;;;;20.02;45.57;101230.25;4183751;28;20052;-46
2021/12/17 06:41:56;;;;;;;8.95;2.40;;;;;;;20.03;45.40;101231.09;4181243;28;20110;-46
2021/12/17 06:43:59;;;;;;;3.95;2.30;;;;;;;20.08;45.78;101245.00;4181877;28;20046;-46
2021/12/17 06:48:25;;;;;;;8.88;4.05;;;;;;;20.10;45.46;101248.34;4167035;28;20072;-44
2021/12/17 06:55:32;;;;;;;3.42;2.22;;;;;;;20.13;45.12;101217.25;4184370;28;20446;-50
2021/12/17 06:58:26;;;;;;;4.15;1.90;;;;;;;20.16;45.12;101225.06;4179949;28;20094;-47
2021/12/17 07:19:28;;;;;;;;;;;;;;;;;;;;;
2021/12/17 07:23:16;;;;;;;4.93;2.05;;;;;;;20.19;45.27;101263.41;4183793;28;20029;-47
2021/12/17 07:38:36;;;;;;;2.30;1.80;;;;;;;20.21;45.52;101266.75;4171901;28;20088;-47
2021/12/17 07:39:17;;;;;;;3.00;2.15;;;;;;;20.21;45.32;101271.50;4172807;28;20423;-47
2021/12/17 07:41:18;;;;;;;2.25;1.98;;;;;;;20.22;45.68;101267.59;4182736;28;20506;-44
2021/12/17 07:43:30;;;;;;;4.22;2.13;;;;;;;20.21;45.32;101265.94;4182504;28;20110;-46
2021/12/17 07:45:31;;;;;;;3.83;1.92;;;;;;;20.21;45.22;101277.88;4181697;28;20056;-47
2021/12/17 07:47:33;;;;;;;2.65;1.88;;;;;;;20.22;45.60;101279.53;4182241;28;20542;-46
2021/12/17 07:49:34;;;;;;;7.95;2.25;;;;;;;20.22;45.36;101282.31;4182185;28;20021;-44
2021/12/17 07:51:36;;;;;;;5.60;2.30;;;;;;;20.22;45.61;101285.09;4181872;28;20106;-45
2021/12/17 07:53:39;;;;;;;2.92;2.38;;;;;;;20.18;45.27;101278.41;4179533;28;20045;-45
2021/12/17 07:55:41;;;;;;;3.20;2.15;;;;;;;20.24;45.58;101282.88;4181686;28;20112;-43
2021/12/17 07:57:42;;;;;;;2.25;1.77;;;;;;;20.25;45.32;101283.72;4179511;28;20186;-43
2021/12/17 07:59:44;;;;;;;3.80;2.50;;;;;;;20.25;45.69;101289.28;4182051;28;20510;-45
2021/12/17 08:01:45;;;;;;;3.47;2.42;;;;;;;20.18;45.78;101295.06;4181778;28;20045;-45
2021/12/17 08:03:47;;;;;;;4.15;2.20;;;;;;;20.22;45.55;101285.09;4180328;28;20053;-44
2021/12/17 08:05:49;;;;;;;3.58;2.40;;;;;;;20.22;45.55;101285.09;4181324;28;20098;-45
2021/12/17 08:07:50;;;;;;;3.33;2.00;;;;;;;20.23;45.41;101289.56;4181377;28;20049;-46
2021/12/17 08:09:52;;;;;;;3.10;2.13;;;;;;;20.24;45.69;101299.56;4178244;28;20041;-45
2021/12/17 08:11:57;;;;;;;3.20;1.92;;;;;;;20.22;45.92;101301.78;4182150;28;20110;-46
2021/12/17 08:14:01;;;;;;;6.47;2.35;;;;;;;20.23;45.97;101302.63;4181473;28;20044;-46
2021/12/17 08:24:00;;;;;;;5.57;2.78;;;;;;;20.25;45.81;101306.81;4181844;28;20082;-45
2021/12/17 08:25:52;;;;;;;5.55;2.20;;;;;;;20.29;45.67;101307.09;4181395;28;20037;-45
2021/12/17 08:28:16;;;;;;;5.03;2.10;;;;;;;20.30;45.61;101297.66;4181010;28;20045;-48
2021/12/17 08:32:16;;;;;;;2.72;2.20;;;;;;;20.29;45.47;101298.75;4180635;28;20028;-47
2021/12/17 08:34:18;;;;;;;3.90;2.30;;;;;;;20.29;45.75;101301.53;4181721;28;20029;-47
2021/12/17 08:36:19;;;;;;;2.58;2.05;;;;;;;20.27;45.77;101307.38;4173392;28;20037;-49
2021/12/17 08:38:21;;;;;;;3.80;2.10;;;;;;;20.30;46.02;101314.34;4165047;28;20042;-47
2021/12/17 08:40:26;;;;;;;4.22;2.50;;;;;;;20.29;45.89;101313.47;4172294;28;20086;-47
2021/12/17 08:42:27;;;;;;;5.55;2.42;;;;;;;20.26;45.60;101314.03;4181136;28;20041;-45
2021/12/17 08:44:29;;;;;;;4.03;2.45;;;;;;;20.27;45.72;101315.69;4180739;28;20037;-47
2021/12/17 08:46:34;;;;;;;3.15;2.30;;;;;;;20.28;45.83;101317.38;4180508;28;20041;-46
2021/12/17 08:48:36;;;;;;;;;;;;;;;20.26;45.67;101310.44;4181527;28;20037;-44
2021/12/17 08:50:37;;;;;;;2.97;2.13;;;;;;;20.28;45.89;101317.38;4180333;28;19917;-45
2021/12/17 08:52:40;;;;;;;4.32;2.30;;;;;;;20.25;45.89;101311.50;4170603;28;20045;-47
2021/12/17 08:54:42;;;;;;;5.70;2.50;;;;;;;20.30;45.60;101329.06;4165348;28;20416;-44
2021/12/17 08:56:47;;;;;;;3.83;2.30;;;;;;;20.28;45.66;101334.03;4181250;28;20029;-44
2021/12/17 08:58:52;;;;;;;3.35;2.50;;;;;;;20.23;45.96;101324.84;4180302;28;20094;-47
2021/12/17 09:00:56;;;;;;;;;;;;;;;20.25;45.91;101345.72;4180882;28;20051;-44
2021/12/17 09:03:00;;;;;;;3.22;2.25;;;;;;;20.24;45.53;101332.91;4180709;28;20331;-46
2021/12/17 09:05:04;;;;;;;3.97;2.25;;;;;;;20.31;45.69;101352.16;4180824;28;20091;-43
2021/12/17 09:07:06;;;;;;;4.25;2.03;;;;;;;20.31;45.71;101352.97;4178753;28;20045;-45
2021/12/17 09:09:08;;;;;;;3.78;2.38;;;;;;;20.30;45.85;101353.25;4175759;28;20601;-44
2021/12/17 09:11:10;;;;;;;5.15;2.42;;;;;;;20.28;45.94;101361.84;4180823;28;20420;-45
2021/12/17 09:13:12;;;;;;;4.35;2.22;;;;;;;20.29;45.77;101362.66;4180931;28;20107;-44
2021/12/17 09:15:13;;;;;;;4.28;2.40;;;;;;;20.27;45.87;101360.16;4180807;28;20483;-46
2021/12/17 09:17:15;;;;;;;3.75;2.30;;;;;;;20.26;45.98;101369.63;4179414;28;20033;-43
2021/12/17 09:19:16;;;;;;;4.00;2.10;;;;;;;20.25;45.91;101373.50;4180052;28;20041;-43
2021/12/17 09:21:19;;;;;;;4.03;2.00;;;;;;;20.29;45.72;101374.63;4180990;28;20036;-44
2021/12/17 09:23:20;;;;;;;3.97;2.30;;;;;;;20.29;45.98;101380.19;4180938;28;20102;-44
2021/12/17 09:25:21;;;;;;;5.40;2.60;;;;;;;20.27;45.86;101376.84;4171477;28;20045;-45
2021/12/17 09:27:23;;;;;;;4.32;2.15;;;;;;;20.29;45.61;101384.91;4164355;28;20046;-44
2021/12/17 09:29:24;;;;;;;4.32;2.33;;;;;;;20.28;45.86;101389.63;4169726;28;20036;-45
2021/12/17 09:31:26;;;;;;;3.58;2.17;;;;;;;20.26;45.57;101400.19;4180561;28;20472;-45
2021/12/17 09:33:27;;;;;;;2.95;2.03;;;;;;;20.29;45.75;101404.34;4180709;28;20040;-45
2021/12/17 09:35:29;;;;;;;3.35;2.17;;;;;;;20.28;45.88;101405.47;4180535;28;20110;-46
2021/12/17 09:37:31;;;;;;;3.97;2.45;;;;;;;20.28;45.58;101406.31;4180011;28;20155;-46
2021/12/17 09:39:32;;;;;;;3.03;2.00;;;;;;;20.30;45.93;101409.66;4180937;28;20083;-45
2021/12/17 09:41:34;;;;;;;4.10;2.28;;;;;;;20.29;45.80;101416.31;4181087;28;20029;-43
2021/12/17 09:43:37;;;;;;;4.22;2.00;;;;;;;20.27;45.90;101418.53;4179618;28;20044;-46
2021/12/17 09:45:38;;;;;;;4.05;2.45;;;;;;;20.27;45.99;101421.31;4186163;28;20037;-44
2021/12/17 09:47:41;;;;;;;3.63;2.90;;;;;;;20.27;45.76;101423.25;4185808;28;20082;-44
2021/12/17 09:49:43;;;;;;;3.70;1.85;;;;;;;20.28;45.86;101433.25;4186183;28;20414;-47
2021/12/17 09:51:46;;;;;;;5.65;2.65;;;;;;;20.28;45.75;101433.25;4185313;28;20045;-43
2021/12/17 09:53:48;;;;;;;3.53;2.45;;;;;;;20.27;45.67;101440.75;4185342;28;20439;-45
2021/12/17 09:55:51;;;;;;;3.20;2.17;;;;;;;20.28;45.90;101450.78;4185703;28;20438;-50
2021/12/17 09:57:53;;;;;;;2.92;1.75;;;;;;;20.29;45.89;101452.44;4185712;28;20487;-46
2021/12/17 09:59:56;;;;;;;3.72;2.25;;;;;;;20.28;45.70;101456.31;4173360;28;20041;-45
2021/12/17 10:02:00;;;;;;;2.97;2.22;;;;;;;20.28;45.96;101456.31;4169132;28;20131;-44
2021/12/17 10:04:27;;;;;;;3.90;2.20;;;;;;;20.25;45.85;101456.00;4184623;28;20484;-48
2021/12/17 10:06:28;;;;;;;2.95;2.17;;;;;;;20.28;45.73;101453.56;4185410;28;20426;-45
2021/12/17 10:08:30;;;;;;;3.30;1.88;;;;;;;20.27;45.65;101465.78;4185341;28;20102;-44
2021/12/17 10:10:37;;;;;;;3.60;2.20;;;;;;;20.28;45.92;101464.66;4185483;28;20048;-46
2021/12/17 10:12:40;;;;;;;3.42;2.40;;;;;;;20.27;45.60;101463.00;4185382;28;20045;-47
2021/12/17 10:15:02;;;;;;;3.10;2.13;;;;;;;20.28;45.72;101467.44;4185417;28;20454;-48
2021/12/17 10:17:11;;;;;;;2.83;2.30;;;;;;;20.29;45.62;101483.00;4175067;28;20452;-46
2021/12/17 10:19:33;;;;;;;3.72;2.28;;;;;;;20.30;45.49;101476.38;4185686;28;20431;-48
2021/12/17 10:21:38;;;;;;;3.28;2.03;;;;;;;20.31;45.91;101489.16;4185488;28;20025;-46
2021/12/17 10:23:43;;;;;;;4.95;2.45;;;;;;;20.31;45.62;101493.88;4185491;28;20095;-46
2021/12/17 10:25:45;;;;;;;3.83;2.33;;;;;;;20.30;45.55;101493.06;4185323;28;20045;-47
2021/12/17 10:27:46;;;;;;;3.30;2.10;;;;;;;20.25;45.65;101490.22;4184939;28;20040;-49
2021/12/17 10:29:48;;;;;;;4.55;2.28;;;;;;;20.28;45.47;101502.75;4184486;28;20496;-45
2021/12/17 10:31:57;;;;;;;3.28;2.20;;;;;;;20.26;45.73;101503.00;4185334;28;20122;-45
2021/12/17 10:34:03;;;;;;;2.67;1.90;;;;;;;20.29;45.49;101508.03;4169304;28;20100;-44
2021/12/17 10:36:10;;;;;;;4.10;1.83;;;;;;;20.23;45.47;101506.31;4168988;28;20092;-46
2021/12/17 10:38:15;;;;;;;3.20;2.35;;;;;;;20.25;45.96;101509.69;4180409;28;20099;-48
2021/12/17 10:40:25;;;;;;;3.60;1.95;;;;;;;20.28;45.46;101525.81;4185600;28;20055;-47
2021/12/17 10:42:37;;;;;;;2.38;1.80;;;;;;;20.29;45.55;101526.66;4185938;28;20090;-44
2021/12/17 10:45:00;;;;;;;3.55;2.10;;;;;;;20.26;45.72;101533.59;4185282;28;20086;-49
2021/12/17 10:47:19;;;;;;;2.35;2.10;;;;;;;20.29;45.62;101541.38;4184975;28;20044;-46
2021/12/17 10:49:24;;;;;;;2.97;2.13;;;;;;;20.29;45.56;101549.72;4183780;28;20111;-44
2021/12/17 10:53:56;;;;;;;2.53;1.90;;;;;;;20.27;45.71;101560.28;4185943;28;20541;-44
2021/12/17 10:55:57;;;;;;;3.67;2.13;;;;;;;20.23;45.46;101556.34;4181953;28;20041;-44
2021/12/17 10:58:02;;;;;;;2.83;2.03;;;;;;;20.29;45.75;101568.34;4182454;28;20042;-47
2021/12/17 11:00:06;;;;;;;3.73;2.00;;;;;;;20.29;45.82;101568.34;4182372;28;20049;-47
2021/12/17 11:02:12;;;;;;;2.78;1.90;;;;;;;20.23;45.43;101563.84;4183140;28;20385;-48
2021/12/17 11:04:30;;;;;;;3.50;2.03;;;;;;;20.26;45.51;101580.84;4182649;28;20041;-45
2021/12/17 11:06:43;;;;;;;3.40;1.80;;;;;;;20.28;45.63;101584.19;4181188;28;20071;-44
2021/12/17 11:08:46;;;;;;;2.83;2.20;;;;;;;20.29;45.40;101585.84;4182037;28;20040;-43
2021/12/17 11:10:59;;;;;;;3.22;2.10;;;;;;;20.23;45.62;101586.91;4182375;28;20053;-47
2021/12/17 11:13:01;;;;;;;2.45;1.73;;;;;;;20.26;45.83;101597.50;4182404;28;20114;-47
2021/12/17 11:15:12;;;;;;;2.95;2.05;;;;;;;20.27;45.64;101610.28;4182297;28;20558;-46
2021/12/17 11:17:16;;;;;;;2.85;1.83;;;;;;;20.28;45.87;101611.97;4182250;28;20071;-46
2021/12/17 11:19:20;;;;;;;3.10;2.17;;;;;;;20.28;45.55;101616.69;4182472;28;20114;-44
2021/12/17 11:21:23;;;;;;;3.05;2.05;;;;;;;20.26;45.81;101622.53;4182497;28;20086;-44
2021/12/17 11:23:24;;;;;;;2.50;1.80;;;;;;;20.29;45.55;101627.53;4168610;28;20557;-45
2021/12/17 11:25:26;;;;;;;3.63;1.95;;;;;;;20.27;45.75;101638.09;4166113;28;20473;-47
2021/12/17 11:27:28;;;;;;;2.38;1.80;;;;;;;20.27;45.47;101645.59;4178839;28;20037;-46
2021/12/17 11:29:30;;;;;;;2.95;2.10;;;;;;;20.25;45.65;101656.97;4181832;28;20049;-46
2021/12/17 11:31:32;;;;;;;3.22;2.00;;;;;;;20.20;45.61;101648.53;4180885;28;20040;-44
2021/12/17 11:33:35;;;;;;;3.42;2.10;;;;;;;20.26;45.47;101661.44;4182482;28;20049;-43
2021/12/17 11:35:38;;;;;;;2.72;2.05;;;;;;;20.25;45.80;101662.53;4182474;28;20063;-43
2021/12/17 11:37:46;;;;;;;2.47;2.08;;;;;;;20.25;45.60;101673.66;4181619;28;20040;-45
2021/12/17 11:40:02;;;;;;;2.78;2.00;;;;;;;20.25;45.81;101673.66;4168869;28;20103;-47
2021/12/17 11:42:13;;;;;;;2.17;1.77;;;;;;;20.27;45.81;101687.28;4178046;28;20122;-43
2021/12/17 11:44:18;;;;;;;3.72;2.13;;;;;;;20.23;45.79;101686.94;4179707;28;20037;-53
2021/12/17 11:46:32;;;;;;;3.65;2.10;;;;;;;20.26;45.82;101705.06;4180878;28;20045;-44
2021/12/17 11:48:37;;;;;;;3.85;2.13;;;;;;;20.26;45.66;101707.84;4182026;28;20041;-44
2021/12/17 11:50:45;;;;;;;;;;;;;;;20.23;45.71;101703.63;4182615;28;20063;-44
2021/12/17 11:52:51;;;;;;;2.22;2.03;;;;;;;20.27;45.44;101706.72;4180499;28;19943;-44
2021/12/17 11:54:53;;;;;;;3.08;1.70;;;;;;;20.30;45.46;101711.78;4179914;28;20068;-46
2021/12/17 11:57:09;;;;;;;3.00;1.83;;;;;;;20.27;45.47;101718.69;4181858;28;20361;-47
2021/12/17 11:59:32;;;;;;;2.78;1.88;;;;;;;20.26;45.33;101714.25;4182016;28;20049;-43
2021/12/17 12:02:01;;;;;;;3.00;2.08;;;;;;;20.25;45.69;101718.13;4181116;28;20039;-46
2021/12/17 12:04:37;;;;;;;4.15;2.50;;;;;;;20.27;45.76;101734.53;4178125;28;20040;-45
2021/12/17 12:06:38;;;;;;;3.55;2.00;;;;;;;20.29;45.53;101747.06;4181011;28;20106;-44
2021/12/17 12:08:47;;;;;;;3.08;1.90;;;;;;;20.27;45.79;101748.41;4181061;28;20041;-47
2021/12/17 12:11:13;;;;;;;3.50;2.35;;;;;;;20.19;45.78;101746.91;4176837;28;20071;-45
2021/12/17 12:13:33;;;;;;;3.78;2.03;;;;;;;20.16;45.63;101755.78;4164638;28;20485;-43
2021/12/17 12:15:37;;;;;;;2.42;1.85;;;;;;;20.16;45.78;101753.00;4178752;28;20091;-45
2021/12/17 12:18:03;;;;;;;3.28;2.20;;;;;;;20.12;45.62;101774.06;4181225;28;20037;-45
2021/12/17 12:20:05;;;;;;;3.72;1.70;;;;;;;20.11;45.55;101775.13;4181828;28;20021;-46
2021/12/17 12:22:08;;;;;;;3.20;2.17;;;;;;;20.12;45.39;101776.84;4179485;28;20542;-45
2021/12/17 12:24:12;;;;;;;3.22;1.98;;;;;;;20.09;45.46;101769.00;4180713;28;20037;-49
2021/12/17 12:26:16;;;;;;;3.63;2.15;;;;;;;20.07;45.61;101771.22;4181332;28;20045;-46
2021/12/17 12:28:49;;;;;;;3.78;1.95;;;;;;;20.05;45.52;101781.72;4168518;28;20036;-44